RYR84KK LEAM-EBCI
Flight info
| Callsign | RYR84KK |
|---|---|
| Flight time | N/A |
| Altitude | 38000 |
| Route | ESILA N865 VTB DCT RBO DCT OSTIX DCT GASMO DCT DGO N858 ABRIX DCT CNA DCT ADABI/N0430F340 DCT BOKNO UN858 VANAD UN874 BAMES UT191 PODEM UN873 BAZOS DCT BELDI DCT VEKIN Z173 ARVOL |
| Aircraft | B738/M-SDE3FGILRWY/SB1 |
Departure
| Time | 2026-04-23 08:29 |
|---|---|
| Airport | Almería Airport (LEAM) |
Arrival
| Time | N/A |
|---|---|
| Airport | Brussels South Charleroi Airport (EBCI) |
| Time | Latitude | Longitude | Altitude | Speed | Heading |
|---|---|---|---|---|---|
| 2026-04-23 08:03 | 36.84631 | -2.37331 | 69 ft | 0 kts | 114° |
| 2026-04-23 08:23 | 36.84624 | -2.37319 | 64 ft | 4 kts | 137° |
| 2026-04-23 08:23 | 36.84572 | -2.37312 | 63 ft | 10 kts | 211° |
| 2026-04-23 08:23 | 36.84527 | -2.37375 | 62 ft | 11 kts | 185° |
| 2026-04-23 08:24 | 36.84466 | -2.37430 | 61 ft | 15 kts | 253° |
| 2026-04-23 08:24 | 36.84430 | -2.37579 | 63 ft | 21 kts | 253° |
| 2026-04-23 08:24 | 36.84385 | -2.37761 | 65 ft | 22 kts | 253° |
| 2026-04-23 08:24 | 36.84341 | -2.37944 | 64 ft | 22 kts | 252° |
| 2026-04-23 08:25 | 36.84297 | -2.38121 | 59 ft | 21 kts | 253° |
| 2026-04-23 08:25 | 36.84255 | -2.38292 | 64 ft | 20 kts | 253° |
| 2026-04-23 08:25 | 36.84213 | -2.38459 | 62 ft | 20 kts | 253° |
| 2026-04-23 08:25 | 36.84173 | -2.38620 | 63 ft | 19 kts | 253° |
| 2026-04-23 08:26 | 36.84145 | -2.38738 | 59 ft | 7 kts | 243° |
| 2026-04-23 08:26 | 36.84138 | -2.38750 | 62 ft | 0 kts | 231° |
| 2026-04-23 08:28 | 36.84126 | -2.38764 | 58 ft | 7 kts | 220° |
| 2026-04-23 08:28 | 36.84049 | -2.38772 | 62 ft | 16 kts | 153° |
| 2026-04-23 08:28 | 36.84009 | -2.38631 | 55 ft | 19 kts | 86° |
| 2026-04-23 08:29 | 36.84070 | -2.38337 | 57 ft | 65 kts | 73° |
| 2026-04-23 08:29 | 36.84266 | -2.37537 | 57 ft | 125 kts | 73° |
| 2026-04-23 08:29 | 36.84566 | -2.36337 | 302 ft | 151 kts | 74° |
| 2026-04-23 08:29 | 36.84881 | -2.35040 | 824 ft | 163 kts | 73° |
| 2026-04-23 08:30 | 36.85198 | -2.33755 | 1660 ft | 157 kts | 70° |
| 2026-04-23 08:30 | 36.85559 | -2.32329 | 1985 ft | 187 kts | 70° |
| 2026-04-23 08:30 | 36.85982 | -2.30676 | 2187 ft | 212 kts | 70° |
| 2026-04-23 08:30 | 36.86449 | -2.28852 | 2517 ft | 226 kts | 70° |
| 2026-04-23 08:31 | 36.86860 | -2.27031 | 3437 ft | 216 kts | 83° |
| 2026-04-23 08:31 | 36.86644 | -2.25190 | 4193 ft | 217 kts | 108° |
| 2026-04-23 08:31 | 36.85901 | -2.23453 | 4543 ft | 236 kts | 124° |
| 2026-04-23 08:31 | 36.84676 | -2.22099 | 5268 ft | 243 kts | 150° |
| 2026-04-23 08:32 | 36.83023 | -2.21476 | 5942 ft | 252 kts | 171° |
| 2026-04-23 08:32 | 36.81249 | -2.21666 | 6648 ft | 263 kts | 193° |
| 2026-04-23 08:32 | 36.79634 | -2.22763 | 7474 ft | 269 kts | 216° |
| 2026-04-23 08:32 | 36.78483 | -2.24656 | 8195 ft | 282 kts | 244° |
| 2026-04-23 08:33 | 36.78113 | -2.27061 | 8904 ft | 296 kts | 269° |
| 2026-04-23 08:33 | 36.78611 | -2.29576 | 9809 ft | 298 kts | 293° |
| 2026-04-23 08:33 | 36.79685 | -2.31824 | 10386 ft | 309 kts | 302° |
| 2026-04-23 08:33 | 36.80964 | -2.34103 | 10558 ft | 332 kts | 304° |
| 2026-04-23 08:34 | 36.82341 | -2.36476 | 10833 ft | 349 kts | 304° |
| 2026-04-23 08:34 | 36.83797 | -2.38992 | 11402 ft | 356 kts | 304° |
| 2026-04-23 08:34 | 36.85213 | -2.41467 | 12232 ft | 355 kts | 303° |
| 2026-04-23 08:34 | 36.86178 | -2.43168 | 12731 ft | 356 kts | 303° |
| 2026-04-23 08:35 | 36.86458 | -2.43667 | 12864 ft | 357 kts | 303° |
| 2026-04-23 08:35 | 36.87818 | -2.46091 | 13577 ft | 359 kts | 303° |
| 2026-04-23 08:35 | 36.89250 | -2.48661 | 14287 ft | 362 kts | 303° |
| 2026-04-23 08:35 | 36.90691 | -2.51257 | 15002 ft | 365 kts | 303° |
| 2026-04-23 08:36 | 36.92159 | -2.53909 | 15728 ft | 368 kts | 302° |
| 2026-04-23 08:36 | 36.93599 | -2.56515 | 16424 ft | 371 kts | 302° |
| 2026-04-23 08:36 | 36.95069 | -2.59177 | 17127 ft | 373 kts | 302° |
| 2026-04-23 08:36 | 36.96550 | -2.61862 | 17796 ft | 377 kts | 303° |
| 2026-04-23 08:37 | 36.98048 | -2.64579 | 18430 ft | 381 kts | 303° |
| 2026-04-23 08:37 | 36.99555 | -2.67315 | 19036 ft | 383 kts | 302° |
| 2026-04-23 08:37 | 37.01076 | -2.70079 | 19574 ft | 388 kts | 302° |
| 2026-04-23 08:37 | 37.02611 | -2.72875 | 20203 ft | 390 kts | 302° |
| 2026-04-23 08:38 | 37.04151 | -2.75672 | 20873 ft | 391 kts | 302° |
| 2026-04-23 08:38 | 37.05639 | -2.78532 | 21431 ft | 393 kts | 297° |
| 2026-04-23 08:38 | 37.06909 | -2.81568 | 22007 ft | 394 kts | 294° |
| 2026-04-23 08:38 | 37.08118 | -2.84667 | 22525 ft | 399 kts | 294° |
| 2026-04-23 08:39 | 37.09330 | -2.87810 | 23087 ft | 401 kts | 294° |
| 2026-04-23 08:39 | 37.10546 | -2.90945 | 23740 ft | 400 kts | 294° |
| 2026-04-23 08:39 | 37.11777 | -2.94102 | 24072 ft | 407 kts | 295° |
| 2026-04-23 08:39 | 37.12607 | -2.96211 | 24408 ft | 408 kts | 295° |
| 2026-04-23 08:40 | 37.12882 | -2.96908 | 24497 ft | 408 kts | 295° |
| 2026-04-23 08:40 | 37.14102 | -2.99983 | 25040 ft | 406 kts | 294° |
| 2026-04-23 08:40 | 37.15359 | -3.03151 | 25593 ft | 406 kts | 294° |
| 2026-04-23 08:40 | 37.16617 | -3.06322 | 26039 ft | 409 kts | 294° |
| 2026-04-23 08:41 | 37.17901 | -3.09568 | 26131 ft | 421 kts | 294° |
| 2026-04-23 08:41 | 37.19207 | -3.12868 | 26483 ft | 424 kts | 294° |
| 2026-04-23 08:41 | 37.20520 | -3.16187 | 26949 ft | 425 kts | 294° |
| 2026-04-23 08:41 | 37.21834 | -3.19512 | 27412 ft | 426 kts | 294° |
| 2026-04-23 08:42 | 37.23152 | -3.22851 | 27803 ft | 428 kts | 294° |
| 2026-04-23 08:42 | 37.24476 | -3.26211 | 28174 ft | 431 kts | 294° |
| 2026-04-23 08:42 | 37.25810 | -3.29588 | 28554 ft | 433 kts | 294° |
| 2026-04-23 08:42 | 37.27164 | -3.32975 | 28932 ft | 435 kts | 294° |
| 2026-04-23 08:43 | 37.28531 | -3.36374 | 29295 ft | 437 kts | 294° |
| 2026-04-23 08:43 | 37.29904 | -3.39791 | 29641 ft | 439 kts | 294° |
| 2026-04-23 08:43 | 37.31281 | -3.43225 | 29996 ft | 441 kts | 294° |
| 2026-04-23 08:43 | 37.32664 | -3.46686 | 30253 ft | 445 kts | 294° |
| 2026-04-23 08:44 | 37.34057 | -3.50174 | 30529 ft | 448 kts | 294° |
| 2026-04-23 08:44 | 37.35433 | -3.53626 | 30879 ft | 447 kts | 294° |
| 2026-04-23 08:44 | 37.36900 | -3.57112 | 31346 ft | 446 kts | 301° |
| 2026-04-23 08:44 | 37.38200 | -3.59114 | 31614 ft | 450 kts | 314° |
| 2026-04-23 08:45 | 37.41344 | -3.61797 | 32135 ft | 455 kts | 332° |
| 2026-04-23 08:45 | 37.44366 | -3.63034 | 32513 ft | 461 kts | 348° |
| 2026-04-23 08:45 | 37.47581 | -3.63265 | 32854 ft | 464 kts | 358° |
| 2026-04-23 08:46 | 37.50813 | -3.63190 | 33180 ft | 465 kts | 359° |
| 2026-04-23 08:46 | 37.54049 | -3.63072 | 33493 ft | 465 kts | 358° |
| 2026-04-23 08:46 | 37.57285 | -3.62979 | 33852 ft | 464 kts | 358° |
| 2026-04-23 08:46 | 37.60512 | -3.62928 | 34170 ft | 463 kts | 357° |
| 2026-04-23 08:47 | 37.63731 | -3.62902 | 34443 ft | 463 kts | 357° |
| 2026-04-23 08:47 | 37.66947 | -3.62883 | 34732 ft | 462 kts | 357° |
| 2026-04-23 08:47 | 37.70161 | -3.62860 | 35038 ft | 462 kts | 357° |
| 2026-04-23 08:47 | 37.73375 | -3.62835 | 35327 ft | 461 kts | 357° |
| 2026-04-23 08:48 | 37.76586 | -3.62810 | 35587 ft | 461 kts | 357° |
| 2026-04-23 08:48 | 37.79792 | -3.62785 | 35837 ft | 461 kts | 357° |
| 2026-04-23 08:48 | 37.83003 | -3.62759 | 36099 ft | 461 kts | 357° |
| 2026-04-23 08:48 | 37.86211 | -3.62733 | 36346 ft | 461 kts | 357° |
| 2026-04-23 08:49 | 37.89418 | -3.62707 | 36593 ft | 461 kts | 357° |
| 2026-04-23 08:49 | 37.92624 | -3.62682 | 36831 ft | 461 kts | 357° |
| 2026-04-23 08:49 | 37.95830 | -3.62656 | 37077 ft | 460 kts | 357° |
| 2026-04-23 08:49 | 37.97991 | -3.62639 | 37257 ft | 460 kts | 357° |
| 2026-04-23 08:50 | 38.01987 | -3.62607 | 37553 ft | 459 kts | 357° |
| 2026-04-23 08:50 | 38.05184 | -3.62581 | 37764 ft | 460 kts | 357° |
| 2026-04-23 08:50 | 38.08383 | -3.62556 | 37981 ft | 459 kts | 356° |
| 2026-04-23 08:51 | 38.14816 | -3.62504 | 38036 ft | 464 kts | 357° |
| 2026-04-23 08:51 | 38.21269 | -3.62069 | 38015 ft | 463 kts | 1° |
| 2026-04-23 08:52 | 38.27653 | -3.61373 | 38017 ft | 459 kts | 1° |
| 2026-04-23 08:52 | 38.34001 | -3.60696 | 38022 ft | 457 kts | 1° |
| 2026-04-23 08:53 | 38.40334 | -3.60063 | 38025 ft | 456 kts | 1° |
| 2026-04-23 08:53 | 38.46661 | -3.59447 | 38020 ft | 456 kts | 1° |
| 2026-04-23 08:54 | 38.52987 | -3.58832 | 38029 ft | 456 kts | 1° |
| 2026-04-23 08:54 | 38.58250 | -3.58317 | 38023 ft | 457 kts | 1° |
| 2026-04-23 08:55 | 38.61968 | -3.57953 | 38036 ft | 458 kts | 1° |
| 2026-04-23 08:55 | 38.68333 | -3.57328 | 38029 ft | 459 kts | 1° |
| 2026-04-23 08:56 | 38.74714 | -3.56700 | 38049 ft | 461 kts | 1° |
| 2026-04-23 08:56 | 38.81116 | -3.56069 | 38044 ft | 462 kts | 1° |
| 2026-04-23 08:57 | 38.87535 | -3.55435 | 38046 ft | 464 kts | 1° |
| 2026-04-23 08:57 | 38.93977 | -3.54798 | 38049 ft | 464 kts | 1° |
| 2026-04-23 08:58 | 39.00420 | -3.54159 | 38050 ft | 464 kts | 1° |
| 2026-04-23 08:58 | 39.06818 | -3.53527 | 38052 ft | 464 kts | 1° |
| 2026-04-23 08:59 | 39.13255 | -3.52892 | 38054 ft | 464 kts | 1° |
| 2026-04-23 08:59 | 39.17556 | -3.52467 | 38055 ft | 463 kts | 1° |
| 2026-04-23 09:00 | 39.22577 | -3.51970 | 38052 ft | 462 kts | 1° |
| 2026-04-23 09:00 | 39.28978 | -3.51335 | 38061 ft | 461 kts | 1° |
| 2026-04-23 09:01 | 39.35368 | -3.50699 | 38071 ft | 460 kts | 1° |
| 2026-04-23 09:01 | 39.41746 | -3.50064 | 38066 ft | 459 kts | 1° |
| 2026-04-23 09:02 | 39.48111 | -3.49429 | 38069 ft | 458 kts | 1° |
| 2026-04-23 09:02 | 39.54466 | -3.48794 | 38086 ft | 458 kts | 1° |
| 2026-04-23 09:03 | 39.60819 | -3.48156 | 38075 ft | 458 kts | 1° |
| 2026-04-23 09:03 | 39.67169 | -3.47512 | 38077 ft | 458 kts | 1° |
| 2026-04-23 09:04 | 39.73520 | -3.46866 | 38073 ft | 458 kts | 1° |
| 2026-04-23 09:04 | 39.77728 | -3.46436 | 38080 ft | 458 kts | 1° |
| 2026-04-23 09:05 | 39.82819 | -3.45616 | 38068 ft | 461 kts | 5° |
| 2026-04-23 09:05 | 39.89151 | -3.44294 | 38071 ft | 461 kts | 6° |
| 2026-04-23 09:06 | 39.95491 | -3.42955 | 38072 ft | 461 kts | 6° |
| 2026-04-23 09:06 | 40.01789 | -3.41668 | 38082 ft | 461 kts | 5° |
| 2026-04-23 09:07 | 40.08131 | -3.40394 | 38075 ft | 461 kts | 5° |
| 2026-04-23 09:07 | 40.14468 | -3.39123 | 38075 ft | 460 kts | 5° |
| 2026-04-23 09:08 | 40.19763 | -3.38058 | 38082 ft | 459 kts | 5° |
| 2026-04-23 09:08 | 40.26069 | -3.36786 | 38083 ft | 458 kts | 5° |
| 2026-04-23 09:09 | 40.32359 | -3.35515 | 38090 ft | 457 kts | 5° |
| 2026-04-23 09:09 | 40.37576 | -3.34459 | 38099 ft | 456 kts | 5° |
| 2026-04-23 09:10 | 40.44587 | -3.33038 | 38111 ft | 455 kts | 5° |
| 2026-04-23 09:11 | 40.50843 | -3.31766 | 38100 ft | 455 kts | 5° |
| 2026-04-23 09:11 | 40.57087 | -3.30495 | 38100 ft | 454 kts | 5° |
| 2026-04-23 09:12 | 40.63327 | -3.29222 | 38095 ft | 453 kts | 5° |
| 2026-04-23 09:12 | 40.69560 | -3.27949 | 38095 ft | 453 kts | 5° |
| 2026-04-23 09:13 | 40.75795 | -3.26672 | 38086 ft | 454 kts | 5° |
| 2026-04-23 09:13 | 40.82036 | -3.25392 | 38091 ft | 454 kts | 5° |
| 2026-04-23 09:14 | 40.88279 | -3.24087 | 38084 ft | 455 kts | 6° |
| 2026-04-23 09:14 | 40.94526 | -3.22682 | 38086 ft | 456 kts | 6° |
| 2026-04-23 09:15 | 40.97411 | -3.22024 | 38079 ft | 456 kts | 6° |
| 2026-04-23 09:15 | 41.03538 | -3.20632 | 38079 ft | 456 kts | 6° |
| 2026-04-23 09:16 | 41.09797 | -3.19219 | 38089 ft | 456 kts | 6° |
| 2026-04-23 09:16 | 41.16022 | -3.17813 | 38080 ft | 457 kts | 6° |
| 2026-04-23 09:17 | 41.22288 | -3.16396 | 38080 ft | 457 kts | 6° |
| 2026-04-23 09:17 | 41.28547 | -3.14977 | 38075 ft | 456 kts | 6° |
| 2026-04-23 09:18 | 41.34803 | -3.13556 | 38089 ft | 456 kts | 6° |
| 2026-04-23 09:18 | 41.41059 | -3.12132 | 38072 ft | 456 kts | 6° |
| 2026-04-23 09:19 | 41.47305 | -3.10708 | 38075 ft | 455 kts | 6° |
| 2026-04-23 09:19 | 41.53545 | -3.09286 | 38086 ft | 455 kts | 6° |
| 2026-04-23 09:20 | 41.56477 | -3.08623 | 38077 ft | 455 kts | 6° |
| 2026-04-23 09:20 | 41.62751 | -3.07205 | 38069 ft | 454 kts | 6° |
| 2026-04-23 09:21 | 41.68979 | -3.05793 | 38068 ft | 454 kts | 6° |
| 2026-04-23 09:21 | 41.75199 | -3.04376 | 38092 ft | 453 kts | 6° |
| 2026-04-23 09:22 | 41.81409 | -3.02950 | 38080 ft | 453 kts | 6° |
| 2026-04-23 09:22 | 41.87611 | -3.01520 | 38080 ft | 452 kts | 6° |
| 2026-04-23 09:23 | 41.93800 | -3.00092 | 38075 ft | 451 kts | 6° |
| 2026-04-23 09:23 | 41.99976 | -2.98664 | 38080 ft | 450 kts | 6° |
| 2026-04-23 09:24 | 42.06140 | -2.97236 | 38073 ft | 449 kts | 6° |
| 2026-04-23 09:24 | 42.12294 | -2.95808 | 38081 ft | 448 kts | 6° |
| 2026-04-23 09:25 | 42.15065 | -2.95151 | 38053 ft | 449 kts | 8° |
| 2026-04-23 09:25 | 42.18064 | -2.93951 | 38102 ft | 451 kts | 19° |
| 2026-04-23 09:25 | 42.20887 | -2.92081 | 38090 ft | 453 kts | 25° |
| 2026-04-23 09:26 | 42.26399 | -2.87975 | 38110 ft | 452 kts | 26° |
| 2026-04-23 09:26 | 42.31907 | -2.83858 | 38103 ft | 452 kts | 26° |
| 2026-04-23 09:27 | 42.37439 | -2.79773 | 38114 ft | 453 kts | 25° |
| 2026-04-23 09:27 | 42.42985 | -2.75701 | 38109 ft | 454 kts | 25° |
| 2026-04-23 09:28 | 42.48502 | -2.71651 | 38117 ft | 455 kts | 25° |
| 2026-04-23 09:28 | 42.54065 | -2.67559 | 38118 ft | 455 kts | 25° |
| 2026-04-23 09:29 | 42.59633 | -2.63452 | 38120 ft | 456 kts | 25° |
| 2026-04-23 09:29 | 42.65204 | -2.59334 | 38116 ft | 456 kts | 25° |
| 2026-04-23 09:30 | 42.67857 | -2.57371 | 38115 ft | 456 kts | 25° |
| 2026-04-23 09:30 | 42.73441 | -2.53230 | 38116 ft | 456 kts | 25° |
| 2026-04-23 09:31 | 42.79002 | -2.49098 | 38128 ft | 455 kts | 25° |
| 2026-04-23 09:31 | 42.84551 | -2.44967 | 38115 ft | 454 kts | 25° |
| 2026-04-23 09:32 | 42.90089 | -2.40836 | 38098 ft | 453 kts | 25° |
| 2026-04-23 09:32 | 42.95611 | -2.36708 | 38098 ft | 452 kts | 25° |
| 2026-04-23 09:33 | 43.01124 | -2.32578 | 38087 ft | 451 kts | 26° |
| 2026-04-23 09:33 | 43.06622 | -2.28451 | 38098 ft | 450 kts | 26° |
| 2026-04-23 09:34 | 43.12111 | -2.24323 | 38077 ft | 450 kts | 26° |
| 2026-04-23 09:34 | 43.17585 | -2.20197 | 38070 ft | 449 kts | 26° |
| 2026-04-23 09:35 | 43.19959 | -2.18404 | 38064 ft | 449 kts | 26° |
| 2026-04-23 09:35 | 43.25485 | -2.14228 | 38056 ft | 448 kts | 26° |
| 2026-04-23 09:36 | 43.30935 | -2.10098 | 38076 ft | 447 kts | 26° |
| 2026-04-23 09:36 | 43.36374 | -2.05970 | 38056 ft | 446 kts | 26° |
| 2026-04-23 09:37 | 43.41804 | -2.01840 | 38084 ft | 446 kts | 26° |
| 2026-04-23 09:37 | 43.47228 | -1.97705 | 38067 ft | 446 kts | 26° |
| 2026-04-23 09:38 | 43.52648 | -1.93566 | 38064 ft | 445 kts | 26° |
| 2026-04-23 09:38 | 43.58063 | -1.89420 | 38082 ft | 445 kts | 26° |
| 2026-04-23 09:39 | 43.63473 | -1.85271 | 38084 ft | 445 kts | 26° |
| 2026-04-23 09:39 | 43.68880 | -1.81115 | 38076 ft | 445 kts | 26° |
| 2026-04-23 09:40 | 43.71365 | -1.79203 | 38066 ft | 444 kts | 26° |
| 2026-04-23 09:40 | 43.76761 | -1.75042 | 38078 ft | 444 kts | 26° |
| 2026-04-23 09:41 | 43.82147 | -1.70881 | 38093 ft | 443 kts | 26° |
| 2026-04-23 09:41 | 43.87527 | -1.66716 | 38079 ft | 443 kts | 26° |
| 2026-04-23 09:42 | 43.92903 | -1.62546 | 38085 ft | 442 kts | 26° |
| 2026-04-23 09:42 | 43.98229 | -1.58406 | 38085 ft | 442 kts | 26° |
| 2026-04-23 09:43 | 44.03592 | -1.54228 | 38100 ft | 441 kts | 26° |
| 2026-04-23 09:43 | 44.08944 | -1.50050 | 38094 ft | 441 kts | 26° |
| 2026-04-23 09:44 | 44.14289 | -1.45869 | 38083 ft | 440 kts | 26° |
| 2026-04-23 09:44 | 44.19620 | -1.41689 | 38085 ft | 439 kts | 26° |
| 2026-04-23 09:45 | 44.21993 | -1.39826 | 38092 ft | 439 kts | 26° |
| 2026-04-23 09:45 | 44.27304 | -1.35650 | 38087 ft | 438 kts | 26° |
| 2026-04-23 09:46 | 44.32605 | -1.31474 | 38100 ft | 437 kts | 26° |
| 2026-04-23 09:46 | 44.37890 | -1.27301 | 38103 ft | 436 kts | 26° |
| 2026-04-23 09:47 | 44.43172 | -1.23121 | 38115 ft | 436 kts | 26° |
| 2026-04-23 09:47 | 44.48450 | -1.18937 | 38101 ft | 436 kts | 26° |
| 2026-04-23 09:48 | 44.53730 | -1.14742 | 38104 ft | 436 kts | 26° |
| 2026-04-23 09:48 | 44.59000 | -1.10545 | 38103 ft | 436 kts | 26° |
| 2026-04-23 09:49 | 44.64272 | -1.06338 | 38109 ft | 436 kts | 26° |
| 2026-04-23 09:49 | 44.69542 | -1.02125 | 38104 ft | 436 kts | 26° |
| 2026-04-23 09:50 | 44.71963 | -1.00186 | 38106 ft | 435 kts | 26° |
| 2026-04-23 09:50 | 44.77226 | -0.95964 | 38113 ft | 435 kts | 26° |
| 2026-04-23 09:51 | 44.82478 | -0.91743 | 38130 ft | 435 kts | 26° |
| 2026-04-23 09:51 | 44.87695 | -0.87540 | 38131 ft | 435 kts | 26° |
| 2026-04-23 09:52 | 44.92941 | -0.83306 | 38132 ft | 435 kts | 26° |
| 2026-04-23 09:52 | 44.98186 | -0.79063 | 38130 ft | 435 kts | 26° |
| 2026-04-23 09:53 | 45.03433 | -0.74810 | 38140 ft | 435 kts | 26° |
| 2026-04-23 09:53 | 45.08678 | -0.70550 | 38127 ft | 434 kts | 26° |
| 2026-04-23 09:54 | 45.13914 | -0.66287 | 38133 ft | 434 kts | 26° |
| 2026-04-23 09:54 | 45.19144 | -0.62020 | 38148 ft | 434 kts | 26° |
| 2026-04-23 09:55 | 45.20813 | -0.60656 | 38140 ft | 433 kts | 26° |
| 2026-04-23 09:55 | 45.25726 | -0.56636 | 38134 ft | 433 kts | 26° |
| 2026-04-23 09:56 | 45.30941 | -0.52361 | 38140 ft | 432 kts | 26° |
| 2026-04-23 09:56 | 45.36111 | -0.48114 | 38143 ft | 432 kts | 26° |
| 2026-04-23 09:57 | 45.41315 | -0.43829 | 38165 ft | 432 kts | 26° |
| 2026-04-23 09:57 | 45.46509 | -0.39544 | 38166 ft | 432 kts | 26° |
| 2026-04-23 09:58 | 45.51702 | -0.35250 | 38177 ft | 431 kts | 26° |
| 2026-04-23 09:58 | 45.56891 | -0.30951 | 38186 ft | 431 kts | 26° |
| 2026-04-23 09:59 | 45.62076 | -0.26644 | 38188 ft | 431 kts | 26° |
| 2026-04-23 09:59 | 45.67259 | -0.22331 | 38184 ft | 431 kts | 26° |
| 2026-04-23 10:00 | 45.69667 | -0.20323 | 38180 ft | 431 kts | 26° |
| 2026-04-23 10:00 | 45.74780 | -0.16055 | 38163 ft | 431 kts | 26° |
| 2026-04-23 10:01 | 45.79952 | -0.11727 | 38168 ft | 431 kts | 26° |
| 2026-04-23 10:01 | 45.85129 | -0.07387 | 38153 ft | 431 kts | 26° |
| 2026-04-23 10:02 | 45.90294 | -0.03046 | 38161 ft | 430 kts | 26° |
| 2026-04-23 10:02 | 45.95463 | 0.01307 | 38190 ft | 430 kts | 26° |
| 2026-04-23 10:03 | 46.00626 | 0.05664 | 38179 ft | 430 kts | 26° |
| 2026-04-23 10:03 | 46.05784 | 0.10028 | 38168 ft | 430 kts | 26° |
| 2026-04-23 10:04 | 46.10927 | 0.14388 | 38174 ft | 428 kts | 26° |
| 2026-04-23 10:04 | 46.16060 | 0.18749 | 38181 ft | 427 kts | 26° |
| 2026-04-23 10:05 | 46.18629 | 0.20935 | 38196 ft | 427 kts | 26° |
| 2026-04-23 10:05 | 46.23734 | 0.25287 | 38183 ft | 426 kts | 26° |
| 2026-04-23 10:06 | 46.28836 | 0.29645 | 38187 ft | 425 kts | 26° |
| 2026-04-23 10:06 | 46.33922 | 0.33999 | 38194 ft | 424 kts | 26° |
| 2026-04-23 10:07 | 46.38997 | 0.38353 | 38207 ft | 424 kts | 26° |
| 2026-04-23 10:07 | 46.44035 | 0.42686 | 38220 ft | 424 kts | 26° |
| 2026-04-23 10:08 | 46.49103 | 0.47052 | 38210 ft | 423 kts | 26° |
| 2026-04-23 10:08 | 46.54161 | 0.51411 | 38208 ft | 422 kts | 24° |
| 2026-04-23 10:09 | 46.59552 | 0.54377 | 38216 ft | 411 kts | 8° |
| 2026-04-23 10:09 | 46.62337 | 0.55272 | 38216 ft | 410 kts | 8° |
| 2026-04-23 10:09 | 46.67017 | 0.56743 | 38211 ft | 410 kts | 8° |
| 2026-04-23 10:10 | 46.70596 | 0.57889 | 38211 ft | 410 kts | 8° |
| 2026-04-23 10:10 | 46.76166 | 0.59710 | 38217 ft | 410 kts | 8° |
| 2026-04-23 10:11 | 46.81738 | 0.61554 | 38221 ft | 410 kts | 8° |
| 2026-04-23 10:11 | 46.87309 | 0.63404 | 38220 ft | 411 kts | 8° |
| 2026-04-23 10:12 | 46.92891 | 0.65260 | 38218 ft | 412 kts | 8° |
| 2026-04-23 10:12 | 46.98477 | 0.67121 | 38234 ft | 412 kts | 8° |
| 2026-04-23 10:13 | 47.04068 | 0.68979 | 38224 ft | 412 kts | 7° |
| 2026-04-23 10:13 | 47.09718 | 0.69897 | 38233 ft | 409 kts | 3° |
| 2026-04-23 10:14 | 47.15250 | 0.72066 | 38254 ft | 415 kts | 14° |
| 2026-04-23 10:14 | 47.19791 | 0.74337 | 38267 ft | 414 kts | 14° |
| 2026-04-23 10:15 | 47.23413 | 0.76142 | 38253 ft | 415 kts | 14° |
| 2026-04-23 10:15 | 47.28842 | 0.78818 | 38260 ft | 414 kts | 14° |
| 2026-04-23 10:16 | 47.34302 | 0.81491 | 38265 ft | 413 kts | 14° |
| 2026-04-23 10:16 | 47.39753 | 0.84158 | 38285 ft | 412 kts | 14° |
| 2026-04-23 10:17 | 47.45176 | 0.86817 | 38259 ft | 409 kts | 14° |
| 2026-04-23 10:17 | 47.50556 | 0.89460 | 38259 ft | 406 kts | 14° |
| 2026-04-23 10:18 | 47.55913 | 0.92098 | 38256 ft | 405 kts | 14° |
| 2026-04-23 10:18 | 47.61258 | 0.94733 | 38261 ft | 407 kts | 15° |
| 2026-04-23 10:19 | 47.66682 | 0.97412 | 38265 ft | 415 kts | 15° |
| 2026-04-23 10:19 | 47.71249 | 0.99674 | 38258 ft | 417 kts | 15° |
| 2026-04-23 10:20 | 47.74472 | 1.01274 | 38264 ft | 418 kts | 15° |
| 2026-04-23 10:20 | 47.79994 | 1.04021 | 38275 ft | 419 kts | 15° |
| 2026-04-23 10:21 | 47.85529 | 1.06780 | 38266 ft | 420 kts | 15° |
| 2026-04-23 10:21 | 47.91068 | 1.09547 | 38266 ft | 420 kts | 15° |
| 2026-04-23 10:22 | 47.96567 | 1.12299 | 38267 ft | 419 kts | 15° |
| 2026-04-23 10:22 | 48.02093 | 1.15072 | 38276 ft | 419 kts | 15° |
| 2026-04-23 10:23 | 48.07652 | 1.17866 | 38279 ft | 418 kts | 15° |
| 2026-04-23 10:23 | 48.13127 | 1.20626 | 38279 ft | 418 kts | 15° |
| 2026-04-23 10:24 | 48.18637 | 1.23408 | 38285 ft | 417 kts | 15° |
| 2026-04-23 10:24 | 48.23245 | 1.25741 | 38286 ft | 418 kts | 16° |
| 2026-04-23 10:25 | 48.26682 | 1.27483 | 38289 ft | 418 kts | 16° |
| 2026-04-23 10:25 | 48.32200 | 1.30281 | 38301 ft | 419 kts | 17° |
| 2026-04-23 10:26 | 48.37735 | 1.33100 | 38296 ft | 421 kts | 17° |
| 2026-04-23 10:26 | 48.43289 | 1.35936 | 38311 ft | 422 kts | 17° |
| 2026-04-23 10:27 | 48.48871 | 1.38791 | 38312 ft | 424 kts | 17° |
| 2026-04-23 10:27 | 48.54471 | 1.41662 | 38307 ft | 426 kts | 17° |
| 2026-04-23 10:28 | 48.60094 | 1.44552 | 38313 ft | 427 kts | 17° |
| 2026-04-23 10:28 | 48.65730 | 1.47454 | 38318 ft | 428 kts | 18° |
| 2026-04-23 10:29 | 48.71374 | 1.50368 | 38316 ft | 429 kts | 18° |
| 2026-04-23 10:29 | 48.76064 | 1.52795 | 38329 ft | 428 kts | 18° |
| 2026-04-23 10:30 | 48.80178 | 1.54928 | 38329 ft | 428 kts | 18° |
| 2026-04-23 10:30 | 48.85807 | 1.57852 | 38332 ft | 427 kts | 18° |
| 2026-04-23 10:31 | 48.91428 | 1.60778 | 38333 ft | 427 kts | 18° |
| 2026-04-23 10:31 | 48.97034 | 1.63704 | 38343 ft | 426 kts | 18° |
| 2026-04-23 10:32 | 49.02629 | 1.66631 | 38333 ft | 425 kts | 18° |
| 2026-04-23 10:32 | 49.08214 | 1.69560 | 38336 ft | 424 kts | 18° |
| 2026-04-23 10:33 | 49.13791 | 1.72491 | 38331 ft | 424 kts | 18° |
| 2026-04-23 10:33 | 49.19322 | 1.75405 | 38346 ft | 423 kts | 18° |
| 2026-04-23 10:34 | 49.24893 | 1.78346 | 38357 ft | 424 kts | 19° |
| 2026-04-23 10:34 | 49.28623 | 1.80321 | 38370 ft | 425 kts | 19° |
| 2026-04-23 10:35 | 49.32974 | 1.82629 | 38356 ft | 427 kts | 19° |
| 2026-04-23 10:35 | 49.38614 | 1.85625 | 38359 ft | 430 kts | 19° |
| 2026-04-23 10:36 | 49.41458 | 1.87139 | 38030 ft | 437 kts | 19° |
| 2026-04-23 10:36 | 49.44324 | 1.88666 | 37696 ft | 434 kts | 19° |
| 2026-04-23 10:36 | 49.47160 | 1.90179 | 37267 ft | 429 kts | 19° |
| 2026-04-23 10:36 | 49.49907 | 1.91878 | 36874 ft | 424 kts | 27° |
| 2026-04-23 10:37 | 49.52431 | 1.94184 | 36523 ft | 419 kts | 36° |
| 2026-04-23 10:37 | 49.54673 | 1.96984 | 36187 ft | 413 kts | 44° |
| 2026-04-23 10:37 | 49.56743 | 2.00034 | 35812 ft | 410 kts | 45° |
| 2026-04-23 10:37 | 49.58773 | 2.03092 | 35430 ft | 407 kts | 45° |
| 2026-04-23 10:38 | 49.60785 | 2.06134 | 35059 ft | 404 kts | 45° |
| 2026-04-23 10:38 | 49.62786 | 2.09148 | 34686 ft | 401 kts | 45° |
| 2026-04-23 10:38 | 49.64777 | 2.12133 | 34308 ft | 399 kts | 45° |
| 2026-04-23 10:38 | 49.66763 | 2.15101 | 33881 ft | 396 kts | 46° |
| 2026-04-23 10:39 | 49.68739 | 2.18048 | 33479 ft | 393 kts | 44° |
| 2026-04-23 10:39 | 49.70694 | 2.20964 | 33124 ft | 389 kts | 46° |
| 2026-04-23 10:39 | 49.72638 | 2.23866 | 32737 ft | 387 kts | 47° |
| 2026-04-23 10:39 | 49.73290 | 2.24840 | 32609 ft | 386 kts | 46° |
| 2026-04-23 10:40 | 49.74487 | 2.26627 | 32376 ft | 384 kts | 48° |
| 2026-04-23 10:40 | 49.76403 | 2.29491 | 32016 ft | 382 kts | 49° |
| 2026-04-23 10:40 | 49.78303 | 2.32335 | 31667 ft | 379 kts | 49° |
| 2026-04-23 10:40 | 49.80192 | 2.35167 | 31315 ft | 377 kts | 49° |
| 2026-04-23 10:41 | 49.82073 | 2.37991 | 30966 ft | 375 kts | 49° |
| 2026-04-23 10:41 | 49.83310 | 2.39851 | 30737 ft | 374 kts | 49° |
| 2026-04-23 10:41 | 49.85174 | 2.42655 | 30378 ft | 373 kts | 49° |
| 2026-04-23 10:41 | 49.87028 | 2.45447 | 29961 ft | 371 kts | 49° |
| 2026-04-23 10:42 | 49.88873 | 2.48229 | 29578 ft | 368 kts | 50° |
| 2026-04-23 10:42 | 49.90700 | 2.50985 | 29220 ft | 365 kts | 50° |
| 2026-04-23 10:42 | 49.92509 | 2.53718 | 28861 ft | 362 kts | 50° |
| 2026-04-23 10:42 | 49.94307 | 2.56436 | 28506 ft | 359 kts | 50° |
| 2026-04-23 10:43 | 49.96089 | 2.59136 | 28132 ft | 357 kts | 50° |
| 2026-04-23 10:43 | 49.97863 | 2.61834 | 27715 ft | 357 kts | 50° |
| 2026-04-23 10:43 | 49.99629 | 2.64525 | 27355 ft | 355 kts | 50° |
| 2026-04-23 10:43 | 50.01386 | 2.67206 | 26996 ft | 353 kts | 50° |
| 2026-04-23 10:44 | 50.03131 | 2.69871 | 26658 ft | 351 kts | 50° |
| 2026-04-23 10:44 | 50.04866 | 2.72525 | 26312 ft | 349 kts | 50° |
| 2026-04-23 10:44 | 50.06593 | 2.75167 | 25958 ft | 347 kts | 50° |
| 2026-04-23 10:44 | 50.07732 | 2.76912 | 25740 ft | 346 kts | 50° |
| 2026-04-23 10:45 | 50.08308 | 2.77796 | 25624 ft | 346 kts | 50° |
| 2026-04-23 10:45 | 50.09930 | 2.80285 | 25309 ft | 344 kts | 50° |
| 2026-04-23 10:45 | 50.11630 | 2.82896 | 24971 ft | 343 kts | 50° |
| 2026-04-23 10:45 | 50.13326 | 2.85503 | 24635 ft | 342 kts | 50° |
| 2026-04-23 10:46 | 50.15014 | 2.88101 | 24308 ft | 340 kts | 50° |
| 2026-04-23 10:46 | 50.16694 | 2.90690 | 23967 ft | 339 kts | 49° |
| 2026-04-23 10:46 | 50.18372 | 2.93278 | 23585 ft | 339 kts | 49° |
| 2026-04-23 10:46 | 50.20044 | 2.95858 | 23225 ft | 337 kts | 49° |
| 2026-04-23 10:47 | 50.21704 | 2.98422 | 22883 ft | 335 kts | 49° |
| 2026-04-23 10:47 | 50.23353 | 3.00973 | 22557 ft | 333 kts | 49° |
| 2026-04-23 10:47 | 50.24994 | 3.03514 | 22227 ft | 331 kts | 49° |
| 2026-04-23 10:47 | 50.25523 | 3.04333 | 22119 ft | 330 kts | 49° |